createdAt,value
2018-03-19T04:30:14.937Z,8.55
2018-03-19T04:32:42.757Z,7.65
2018-03-19T04:35:10.519Z,9.55
2018-03-19T04:37:38.172Z,9.52
2018-03-19T04:40:05.943Z,9.77
2018-03-19T04:42:33.808Z,8.20
2018-03-19T04:45:01.488Z,8.13
2018-03-19T04:47:29.231Z,7.93
2018-03-19T04:49:56.887Z,9.38
2018-03-19T04:52:24.654Z,9.05
2018-03-19T04:54:52.417Z,9.35
2018-03-19T04:57:20.044Z,9.30
2018-03-19T04:59:47.846Z,8.70
2018-03-19T05:02:15.540Z,8.20
2018-03-19T05:04:44.083Z,9.45
2018-03-19T05:07:11.848Z,9.27
2018-03-19T05:09:39.814Z,10.73
2018-03-19T05:12:07.475Z,9.70
2018-03-19T05:14:35.239Z,9.15
2018-03-19T05:17:03.001Z,8.50
2018-03-19T05:19:30.683Z,8.65
2018-03-19T05:21:58.526Z,8.70
2018-03-19T05:24:26.204Z,8.25
2018-03-19T05:26:53.869Z,9.20
2018-03-19T05:29:21.628Z,9.63
2018-03-19T05:31:50.908Z,10.05
2018-03-19T05:34:18.588Z,10.43
2018-03-19T05:36:46.435Z,9.30
2018-03-19T05:39:14.197Z,10.85
2018-03-19T05:41:41.961Z,8.85
2018-03-19T05:44:09.723Z,9.23
2018-03-19T05:46:37.487Z,10.30
2018-03-19T05:49:05.250Z,8.18
2018-03-19T05:51:33.013Z,8.75
2018-03-19T05:54:00.693Z,8.23
2018-03-19T05:56:28.544Z,7.50
2018-03-19T05:58:57.223Z,8.25
2018-03-19T06:01:24.987Z,9.02
2018-03-19T06:03:52.928Z,8.93
2018-03-19T06:06:20.717Z,8.63
2018-03-19T06:08:48.397Z,8.80
2018-03-19T06:11:16.147Z,8.02
2018-03-19T06:13:43.925Z,8.55
2018-03-19T06:16:11.668Z,8.40
2018-03-19T06:18:39.318Z,7.53
2018-03-19T06:21:07.191Z,8.35
2018-03-19T06:23:34.955Z,7.70
2018-03-19T06:26:02.588Z,7.32
2018-03-19T06:28:30.588Z,7.45
2018-03-19T06:30:58.260Z,9.05
2018-03-19T06:33:25.920Z,9.23
2018-03-19T06:35:53.685Z,8.25
2018-03-19T06:38:21.346Z,8.23
2018-03-19T06:40:49.089Z,9.57
2018-03-19T06:43:16.858Z,8.40
2018-03-19T06:45:44.532Z,8.85
2018-03-19T06:48:12.169Z,7.28
2018-03-19T06:50:39.848Z,8.05
2018-03-19T06:53:07.597Z,9.32
2018-03-19T06:55:35.398Z,8.70
2018-03-19T06:58:03.141Z,8.35
2018-03-19T07:00:30.800Z,7.80
2018-03-19T07:02:58.546Z,8.27
2018-03-19T07:05:26.716Z,8.75
2018-03-19T07:07:54.625Z,7.82
2018-03-19T07:10:23.613Z,8.40
2018-03-19T07:12:52.669Z,7.40
2018-03-19T07:15:20.360Z,7.93
2018-03-19T07:17:48.197Z,7.70
2018-03-19T07:20:15.959Z,7.90
2018-03-19T07:22:43.636Z,7.57
2018-03-19T07:25:11.296Z,7.37
2018-03-19T07:27:39.108Z,7.65
2018-03-19T07:30:07.640Z,8.48
2018-03-19T07:32:35.283Z,8.25
2018-03-19T07:35:03.048Z,8.52
2018-03-19T07:37:30.914Z,7.75
2018-03-19T07:39:58.596Z,7.40
2018-03-19T07:42:27.771Z,7.43
2018-03-19T07:44:55.552Z,8.75
2018-03-19T07:47:23.500Z,8.02
2018-03-19T07:49:51.264Z,8.05
2018-03-19T07:52:18.944Z,8.38
2018-03-19T07:54:46.691Z,7.75
2018-03-19T07:57:14.461Z,8.45
2018-03-19T07:59:42.140Z,7.55
2018-03-19T08:02:09.977Z,8.15
2018-03-19T08:04:37.656Z,7.62
2018-03-19T08:07:06.132Z,8.90
2018-03-19T08:09:33.880Z,9.07
2018-03-19T08:12:01.561Z,7.78
2018-03-19T08:14:29.404Z,8.63
2018-03-19T08:16:57.171Z,8.00
2018-03-19T08:19:24.848Z,8.55
2018-03-19T08:21:52.694Z,7.50
2018-03-19T08:24:20.372Z,8.55
2018-03-19T08:27:00.012Z,8.68
2018-03-19T08:29:27.648Z,9.25
2018-03-19T08:31:55.419Z,8.45
2018-03-19T08:34:23.092Z,10.32
2018-03-19T08:36:50.843Z,7.85
2018-03-19T08:39:18.528Z,7.95
2018-03-19T08:41:46.422Z,8.45
2018-03-19T08:44:14.132Z,8.80
2018-03-19T08:46:41.894Z,8.50
2018-03-19T08:49:09.760Z,8.15
2018-03-19T08:51:37.522Z,8.05
2018-03-19T08:54:05.287Z,8.50
2018-03-19T08:56:32.962Z,9.05
2018-03-19T08:59:00.609Z,8.95
2018-03-19T09:01:28.291Z,7.68
2018-03-19T09:03:56.048Z,7.72
2018-03-19T09:06:23.813Z,8.38
2018-03-19T09:08:51.556Z,10.05
2018-03-19T09:11:19.319Z,8.20
2018-03-19T09:13:46.985Z,9.00
2018-03-19T09:16:14.652Z,8.70
2018-03-19T09:18:42.403Z,8.45
2018-03-19T09:21:10.063Z,8.30
2018-03-19T09:23:37.933Z,10.00
2018-03-19T09:26:05.609Z,9.02
2018-03-19T09:28:33.273Z,9.05
2018-03-19T09:31:01.062Z,8.23
2018-03-19T09:33:29.512Z,8.20
2018-03-19T09:35:57.255Z,8.85
2018-03-19T09:38:25.037Z,8.10
2018-03-19T09:40:52.782Z,8.52
2018-03-19T09:43:20.441Z,8.32
2018-03-19T09:45:48.101Z,8.55
2018-03-19T09:48:15.866Z,8.65
2018-03-19T09:50:43.638Z,9.13
2018-03-19T09:53:11.408Z,9.27
2018-03-19T09:55:39.154Z,8.85
2018-03-19T09:58:06.814Z,8.23
2018-03-19T10:00:34.488Z,7.70
2018-03-19T10:03:02.257Z,8.63
2018-03-19T10:05:30.000Z,9.00
2018-03-19T10:07:57.763Z,9.05
2018-03-19T10:10:25.443Z,10.35
2018-03-19T10:12:53.289Z,8.43
2018-03-19T10:15:20.968Z,7.55
2018-03-19T10:17:48.632Z,7.68
2018-03-19T10:20:16.373Z,7.80
2018-03-19T10:22:44.055Z,9.15
2018-03-19T10:25:11.796Z,8.75
2018-03-19T10:27:39.584Z,8.82
2018-03-19T10:30:08.243Z,7.87
2018-03-19T10:32:36.008Z,8.90
2018-03-19T10:35:03.872Z,9.38
2018-03-19T10:37:31.635Z,9.25
2018-03-19T10:39:59.419Z,8.65
2018-03-19T10:42:27.896Z,8.80
2018-03-19T10:44:55.560Z,7.93
2018-03-19T10:47:23.216Z,9.95
2018-03-19T10:49:51.017Z,7.97
2018-03-19T10:52:19.544Z,7.95
2018-03-19T10:54:47.229Z,8.30
2018-03-19T10:57:14.967Z,9.77
2018-03-19T10:59:42.730Z,9.02
2018-03-19T11:02:16.637Z,9.02
2018-03-19T11:04:51.076Z,7.80
2018-03-19T11:07:24.472Z,8.88
2018-03-19T11:09:52.128Z,9.23
2018-03-19T11:12:19.943Z,8.73
2018-03-19T11:14:47.740Z,8.93
2018-03-19T11:17:15.503Z,9.05
2018-03-19T11:19:43.180Z,9.07
2018-03-19T11:22:11.027Z,8.30
2018-03-19T11:24:38.791Z,8.57
2018-03-19T11:27:06.554Z,8.73
2018-03-19T11:29:34.212Z,8.98
2018-03-19T11:32:01.850Z,9.10
2018-03-19T11:34:29.639Z,9.07
2018-03-19T11:36:57.304Z,8.70
2018-03-19T11:39:25.000Z,10.40
2018-03-19T11:41:53.472Z,8.13
2018-03-19T11:44:21.936Z,8.57
2018-03-19T11:46:49.681Z,8.20
2018-03-19T11:49:17.444Z,8.20
2018-03-19T11:51:45.207Z,9.00
2018-03-19T11:54:12.844Z,8.68
2018-03-19T11:56:40.552Z,9.00
2018-03-19T11:59:08.292Z,8.60
2018-03-19T12:01:36.054Z,8.38
2018-03-19T12:04:03.817Z,8.23
2018-03-19T12:06:31.580Z,8.52
2018-03-19T12:08:59.349Z,8.32
2018-03-19T12:11:27.105Z,8.68
2018-03-19T12:13:54.785Z,8.77
2018-03-19T12:16:22.531Z,9.23
2018-03-19T12:18:50.214Z,8.88
2018-03-19T12:21:18.688Z,8.45
2018-03-19T12:23:46.432Z,7.72
2018-03-19T12:26:14.112Z,8.43
2018-03-19T12:28:41.772Z,8.65
2018-03-19T12:31:09.516Z,8.18
2018-03-19T12:33:37.381Z,8.05
2018-03-19T12:36:05.065Z,8.20
2018-03-19T12:38:32.749Z,8.25
2018-03-19T12:41:01.187Z,9.00
2018-03-19T12:43:28.944Z,8.63
2018-03-19T12:45:56.707Z,7.40
2018-03-19T12:48:24.388Z,6.95
2018-03-19T12:50:52.076Z,8.77
2018-03-19T12:53:20.713Z,8.52
2018-03-19T12:55:48.476Z,8.82
2018-03-19T12:58:16.161Z,8.15
2018-03-19T13:00:44.641Z,7.90
2018-03-19T13:03:12.297Z,7.95
2018-03-19T13:05:40.039Z,7.53
2018-03-19T13:08:07.803Z,7.68
2018-03-19T13:10:35.462Z,7.68
2018-03-19T13:13:03.226Z,7.15
2018-03-19T13:15:31.091Z,7.57
2018-03-19T13:17:58.718Z,7.78
2018-03-19T13:20:26.344Z,7.75
2018-03-19T13:22:54.177Z,8.82
2018-03-19T13:25:21.859Z,8.85
2018-03-19T13:27:49.635Z,7.95
2018-03-19T13:30:18.182Z,8.52
2018-03-19T13:32:45.860Z,8.45
2018-03-19T13:35:15.056Z,7.93
2018-03-19T13:37:42.717Z,7.65
2018-03-19T13:40:10.487Z,7.70
2018-03-19T13:42:39.042Z,8.10
2018-03-19T13:45:06.721Z,6.57
2018-03-19T13:47:34.472Z,7.55
2018-03-19T13:50:02.331Z,6.78
2018-03-19T13:52:30.094Z,6.50
2018-03-19T13:54:57.857Z,6.82
2018-03-19T13:57:25.536Z,6.25
2018-03-19T13:59:53.196Z,6.95
2018-03-19T14:02:20.840Z,6.35
2018-03-19T14:04:48.500Z,6.50
2018-03-19T14:07:16.161Z,6.82
2018-03-19T14:09:44.028Z,6.87
2018-03-19T14:12:11.790Z,8.13
2018-03-19T14:14:39.448Z,6.20
2018-03-19T14:17:07.225Z,7.55
2018-03-19T14:19:34.994Z,6.15
2018-03-19T14:22:02.652Z,6.80
2018-03-19T14:24:31.934Z,7.45
2018-03-19T14:26:59.698Z,6.32
2018-03-19T14:29:27.381Z,6.30
2018-03-19T14:31:55.141Z,6.47
2018-03-19T14:34:22.888Z,5.97
2018-03-19T14:36:50.665Z,5.53
2018-03-19T14:39:18.512Z,6.72
2018-03-19T14:41:46.169Z,6.05
2018-03-19T14:44:13.935Z,5.97
2018-03-19T14:46:41.698Z,6.43
2018-03-19T14:49:09.462Z,5.78
2018-03-19T14:51:37.224Z,6.30
2018-03-19T14:54:04.878Z,5.60
2018-03-19T14:56:32.547Z,5.62
2018-03-19T14:59:00.285Z,5.85
2018-03-19T15:01:27.937Z,5.80
2018-03-19T15:03:55.568Z,5.70
2018-03-19T15:06:24.028Z,9.98
2018-03-19T15:08:51.657Z,7.70
2018-03-19T15:11:19.288Z,5.40
2018-03-19T15:13:46.976Z,6.30
2018-03-19T15:16:14.609Z,5.37
2018-03-19T15:18:42.246Z,6.47
2018-03-19T15:21:09.924Z,10.70
2018-03-19T15:23:38.323Z,8.32
2018-03-19T15:26:05.964Z,5.70
2018-03-19T15:28:33.640Z,6.75
2018-03-19T15:31:01.276Z,6.30
2018-03-19T15:33:29.681Z,6.15
2018-03-19T15:35:57.341Z,5.25
2018-03-19T15:38:25.304Z,6.50
2018-03-19T15:40:52.954Z,8.70
2018-03-19T15:43:20.637Z,5.80
2018-03-19T15:45:48.281Z,7.00
2018-03-19T15:48:15.909Z,6.07
2018-03-19T15:50:43.576Z,6.90
2018-03-19T15:53:12.007Z,6.57
2018-03-19T15:55:39.651Z,8.75
2018-03-19T15:58:07.309Z,7.70
2018-03-19T16:00:34.940Z,6.50
2018-03-19T16:03:03.349Z,7.10
2018-03-19T16:05:31.066Z,10.25
2018-03-19T16:07:59.489Z,6.60
2018-03-19T16:10:27.174Z,5.78
2018-03-19T16:12:55.038Z,5.57
2018-03-19T16:15:22.805Z,6.40
2018-03-19T16:17:50.436Z,6.18
2018-03-19T16:20:18.144Z,6.15
2018-03-19T16:22:45.885Z,6.20
2018-03-19T16:25:13.516Z,6.80
2018-03-19T16:27:41.410Z,6.50
2018-03-19T16:30:09.173Z,5.50
2018-03-19T16:32:36.853Z,5.30
2018-03-19T16:35:04.607Z,6.05
2018-03-19T16:37:32.361Z,6.50
2018-03-19T16:40:00.124Z,6.20
2018-03-19T16:42:28.297Z,6.75
2018-03-19T16:44:56.079Z,5.78
2018-03-19T16:47:23.822Z,5.65
2018-03-19T16:49:51.688Z,5.75
2018-03-19T16:52:19.364Z,5.65
2018-03-19T16:54:47.023Z,5.43
2018-03-19T16:57:14.696Z,6.40
2018-03-19T16:59:42.433Z,7.28
2018-03-19T17:02:10.195Z,6.07
2018-03-19T17:04:37.960Z,8.73
2018-03-19T17:07:05.662Z,7.50
2018-03-19T17:09:33.321Z,5.65
2018-03-19T17:12:01.860Z,8.75
2018-03-19T17:14:29.622Z,6.57
2018-03-19T17:16:57.424Z,6.32
2018-03-19T17:19:25.865Z,6.22
2018-03-19T17:21:53.544Z,6.40
2018-03-19T17:24:21.506Z,6.75
2018-03-19T17:26:50.200Z,5.45
2018-03-19T17:29:19.081Z,6.22
2018-03-19T17:31:47.915Z,6.30
2018-03-19T17:34:15.721Z,5.93
2018-03-19T17:36:43.576Z,6.12
2018-03-19T17:39:11.245Z,5.50
2018-03-19T17:41:38.927Z,6.20
2018-03-19T17:44:06.688Z,6.35
2018-03-19T17:46:34.432Z,7.05
2018-03-19T17:49:03.116Z,7.32
2018-03-19T17:51:30.879Z,7.57
2018-03-19T17:53:58.568Z,9.27
2018-03-19T17:56:26.303Z,16.05
2018-03-19T17:58:53.988Z,13.70
2018-03-19T18:01:21.726Z,10.35
2018-03-19T18:03:49.409Z,10.27
2018-03-19T18:06:17.252Z,11.85
2018-03-19T18:11:45.791Z,11.52
2018-03-19T18:14:13.429Z,11.48
2018-03-19T18:16:41.214Z,9.10
2018-03-19T18:19:08.869Z,10.48
2018-03-19T18:21:36.637Z,18.80
2018-03-19T18:24:04.316Z,13.50
2018-03-19T18:26:31.977Z,8.70
2018-03-19T18:28:59.720Z,19.25
2018-03-19T18:31:27.508Z,15.13
2018-03-19T18:33:55.246Z,9.52
2018-03-19T18:36:23.009Z,13.18
2018-03-19T18:38:50.874Z,8.48
2018-03-19T18:41:18.557Z,9.55
2018-03-19T18:43:47.117Z,8.85
2018-03-19T18:46:14.880Z,9.45
2018-03-19T18:48:42.643Z,8.15
2018-03-19T18:51:10.424Z,9.68
2018-03-19T18:53:38.169Z,8.55
2018-03-19T18:56:06.594Z,9.98
2018-03-19T18:58:34.346Z,9.43
2018-03-19T19:01:02.072Z,9.98
2018-03-19T19:03:29.775Z,14.80
2018-03-19T19:05:58.220Z,24.00
2018-03-19T19:08:25.852Z,27.77
2018-03-19T19:10:53.484Z,26.10
2018-03-19T19:13:21.917Z,31.55
2018-03-19T19:15:49.560Z,46.72
2018-03-19T19:18:17.191Z,28.00
2018-03-19T19:20:44.892Z,15.35
2018-03-19T19:23:12.531Z,29.40
2018-03-19T19:25:40.164Z,15.88
2018-03-19T19:28:08.610Z,12.90
2018-03-19T19:30:36.249Z,11.75
2018-03-19T19:33:03.883Z,10.35
2018-03-19T19:35:31.546Z,10.85
2018-03-19T19:37:59.214Z,10.50
2018-03-19T19:40:26.848Z,10.35
2018-03-19T19:42:54.510Z,9.77
2018-03-19T19:45:23.962Z,8.00
2018-03-19T19:47:51.603Z,9.18
2018-03-19T19:53:25.188Z,12.02
2018-03-19T19:55:53.588Z,11.10
2018-03-19T19:58:21.225Z,9.23
2018-03-19T20:00:48.897Z,8.73
2018-03-19T20:03:17.403Z,10.98
2018-03-19T20:05:45.918Z,18.42
2018-03-19T20:08:13.613Z,24.20
2018-03-19T20:10:41.248Z,26.83
2018-03-19T20:13:08.895Z,24.15
2018-03-19T20:15:36.572Z,24.85
2018-03-19T20:18:04.213Z,20.77
2018-03-19T20:20:31.857Z,18.95
2018-03-19T20:23:00.285Z,28.27
2018-03-19T20:25:27.918Z,13.38
2018-03-19T20:27:55.596Z,11.07
2018-03-19T20:30:23.238Z,10.20
2018-03-19T20:32:50.875Z,11.57
2018-03-19T20:35:19.323Z,9.20
2018-03-19T20:37:46.965Z,9.57
2018-03-19T20:40:14.609Z,7.93
2018-03-19T20:42:42.284Z,10.38
2018-03-19T20:45:09.919Z,8.32
2018-03-19T20:47:37.549Z,8.32
2018-03-19T20:50:05.980Z,9.38
2018-03-19T20:52:33.616Z,9.55
2018-03-19T20:55:01.258Z,9.82
2018-03-19T20:57:29.784Z,9.70
2018-03-19T20:59:57.830Z,10.02
2018-03-19T21:02:25.464Z,10.25
2018-03-19T21:04:56.328Z,10.95
2018-03-19T21:07:25.964Z,10.35
2018-03-19T21:09:56.934Z,11.27
2018-03-19T21:12:27.420Z,14.57
2018-03-19T21:14:55.238Z,11.15
2018-03-19T21:17:23.638Z,10.43
2018-03-19T21:19:51.337Z,11.05
2018-03-19T21:22:19.740Z,10.15
2018-03-19T21:24:47.374Z,8.95
2018-03-19T21:27:15.054Z,10.30
2018-03-19T21:29:42.689Z,10.30
2018-03-19T21:32:10.327Z,8.57
2018-03-19T21:34:38.002Z,10.35
2018-03-19T21:37:05.636Z,9.43
2018-03-19T21:39:33.273Z,11.00
2018-03-19T21:42:01.717Z,9.52
2018-03-19T21:44:29.352Z,9.80
2018-03-19T21:46:56.996Z,10.80
2018-03-19T21:49:24.681Z,10.55
2018-03-19T21:51:52.320Z,9.57
2018-03-19T21:54:19.961Z,10.10
2018-03-19T21:56:48.386Z,10.05
2018-03-19T21:59:16.028Z,10.38
2018-03-19T22:01:43.709Z,10.07
2018-03-19T22:04:11.344Z,10.50
2018-03-19T22:06:38.973Z,9.65
2018-03-19T22:09:07.413Z,9.45
2018-03-19T22:11:35.049Z,9.65
2018-03-19T22:14:02.685Z,9.10
2018-03-19T22:16:30.359Z,10.52
2018-03-19T22:18:57.995Z,9.35
2018-03-19T22:21:26.397Z,9.25
2018-03-19T22:23:54.072Z,10.60
2018-03-19T22:26:21.708Z,12.60
2018-03-19T22:28:49.341Z,10.50
2018-03-19T22:31:17.019Z,10.55
2018-03-19T22:33:45.416Z,11.10
2018-03-19T22:36:13.048Z,11.68
2018-03-19T22:38:41.482Z,12.07
2018-03-19T22:41:09.119Z,8.82
2018-03-19T22:43:36.761Z,10.18
2018-03-19T22:46:04.435Z,10.18
2018-03-19T22:48:32.059Z,9.60
2018-03-19T22:50:59.684Z,9.95
2018-03-19T22:53:27.361Z,8.95
2018-03-19T22:55:54.993Z,10.05
2018-03-19T22:58:22.620Z,9.38
2018-03-19T23:00:50.278Z,11.60
2018-03-19T23:03:18.680Z,12.00
2018-03-19T23:05:46.312Z,10.48
2018-03-19T23:08:14.752Z,10.73
2018-03-19T23:10:42.394Z,11.90
2018-03-19T23:13:10.040Z,10.98
2018-03-19T23:15:37.713Z,13.18
2018-03-19T23:18:05.344Z,11.30
2018-03-19T23:20:32.977Z,11.23
2018-03-19T23:23:01.456Z,12.43
2018-03-19T23:25:29.864Z,13.90
2018-03-19T23:27:57.496Z,11.38
